createdAt,value
2022-09-17T10:46:44.657Z,18.2
2022-09-17T10:52:08.550Z,18.5
2022-09-17T10:57:45.989Z,18.8
2022-09-17T11:03:30.107Z,19.1
2022-09-17T11:08:53.775Z,19.2
2022-09-17T11:14:30.621Z,19.4
2022-09-17T11:20:09.176Z,19.9
2022-09-17T11:25:48.662Z,20.1
2022-09-17T11:31:27.022Z,20.3
2022-09-17T11:37:05.756Z,20.1
2022-09-17T11:42:50.166Z,19.8
2022-09-17T11:48:12.433Z,19.5
2022-09-17T11:53:35.294Z,19.7
2022-09-17T11:58:59.202Z,19.7
2022-09-17T12:04:37.394Z,19.8
2022-09-17T12:10:17.113Z,19.5
2022-09-17T12:16:25.947Z,19.3
2022-09-17T12:22:29.858Z,19.1
2022-09-17T12:28:07.785Z,19.4
2022-09-17T12:33:48.888Z,19.2
2022-09-17T12:39:58.622Z,18.8
2022-09-17T12:45:37.157Z,18.6
2022-09-17T12:51:16.574Z,18.3
2022-09-17T12:56:54.208Z,18.4
2022-09-17T13:02:32.808Z,18.4
2022-09-17T13:08:29.613Z,18.6
2022-09-17T13:14:06.924Z,18.8
2022-09-17T13:25:49.666Z,18.6
2022-09-17T13:31:27.178Z,18.8
2022-09-17T13:36:50.003Z,18.4
2022-09-17T13:42:30.159Z,18.4
2022-09-17T13:48:08.533Z,18.6
2022-09-17T13:53:46.634Z,18.1
2022-09-17T14:04:49.337Z,18.3
2022-09-17T14:10:30.124Z,18.1
2022-09-17T14:16:09.934Z,18.1
2022-09-17T14:21:51.934Z,18.1
2022-09-17T14:27:30.021Z,18
2022-09-17T14:33:09.550Z,18.1
2022-09-17T14:38:47.218Z,17.9
2022-09-17T14:44:25.660Z,18.1
2022-09-17T14:50:05.618Z,17.8
2022-09-17T14:55:43.898Z,17.9
2022-09-17T18:05:04.434Z,17.2
2022-09-17T18:10:28.956Z,17.4
2022-09-17T18:16:09.317Z,17.3
2022-09-17T18:21:53.903Z,17.1
2022-09-17T18:27:04.086Z,17.1
2022-09-17T18:32:46.150Z,16.9
2022-09-17T18:38:24.727Z,17.2
2022-09-17T18:44:30.579Z,17.2
2022-09-17T18:50:08.872Z,17.1
2022-09-17T18:55:37.026Z,17.1
2022-09-17T19:01:16.796Z,16.7
2022-09-17T19:06:54.203Z,16.8
2022-09-17T19:12:32.327Z,16.8
2022-09-17T19:23:36.525Z,16.9
2022-09-17T19:29:14.140Z,16.9
2022-09-17T19:34:54.768Z,16.9
2022-09-17T19:40:33.192Z,16.9
2022-09-17T19:45:39.486Z,16.8
2022-09-17T19:51:03.945Z,16.6
2022-09-17T19:56:41.807Z,16.3
2022-09-17T20:02:23.043Z,16.1
2022-09-17T20:07:47.464Z,16.6
2022-09-17T20:13:14.625Z,16.3
2022-09-17T20:18:40.204Z,16.6
2022-09-17T20:24:19.545Z,16.3
2022-09-17T20:29:42.096Z,16.6
2022-09-17T20:35:25.591Z,16.6
2022-09-17T20:42:42.116Z,16.6
2022-09-17T20:48:20.134Z,16.6
2022-09-17T20:59:07.011Z,16.9
2022-09-17T21:10:07.882Z,17.1
2022-09-17T21:15:53.070Z,16.8
2022-09-17T21:21:31.439Z,16.4
2022-09-17T21:27:09.705Z,16.3
2022-09-17T21:32:33.645Z,16.3
2022-09-17T21:38:12.010Z,16.3
2022-09-17T21:43:41.280Z,16.5
2022-09-17T21:49:04.994Z,19.3
2022-09-17T21:54:26.180Z,20.6
2022-09-17T22:00:04.701Z,20.7
2022-09-17T22:05:47.343Z,20.6
2022-09-17T22:11:24.441Z,19.7
